sensor_id;sensor_type;location;lat;lon;timestamp;P1;durP1;ratioP1;P2;durP2;ratioP2
18455;SDS011;9357;49.900;8.208;2023-05-07T00:00:36;2.87;;;2.40;;
18455;SDS011;9357;49.900;8.208;2023-05-07T00:02:08;3.40;;;2.30;;
18455;SDS011;9357;49.900;8.208;2023-05-07T00:03:40;3.20;;;2.47;;
18455;SDS011;9357;49.900;8.208;2023-05-07T00:05:13;3.00;;;2.17;;
18455;SDS011;9357;49.900;8.208;2023-05-07T00:06:47;4.13;;;2.23;;
18455;SDS011;9357;49.900;8.208;2023-05-07T00:08:20;2.87;;;2.40;;
18455;SDS011;9357;49.900;8.208;2023-05-07T00:09:53;3.53;;;2.40;;
18455;SDS011;9357;49.900;8.208;2023-05-07T00:11:26;3.27;;;2.40;;
18455;SDS011;9357;49.900;8.208;2023-05-07T00:12:58;2.77;;;2.30;;
18455;SDS011;9357;49.900;8.208;2023-05-07T00:14:31;2.47;;;2.27;;
18455;SDS011;9357;49.900;8.208;2023-05-07T00:16:04;2.33;;;2.13;;
18455;SDS011;9357;49.900;8.208;2023-05-07T00:17:37;2.77;;;2.50;;
18455;SDS011;9357;49.900;8.208;2023-05-07T00:19:09;3.63;;;2.40;;
18455;SDS011;9357;49.900;8.208;2023-05-07T00:20:42;3.00;;;2.33;;
18455;SDS011;9357;49.900;8.208;2023-05-07T00:22:16;5.80;;;2.40;;
18455;SDS011;9357;49.900;8.208;2023-05-07T00:23:48;2.17;;;1.90;;
18455;SDS011;9357;49.900;8.208;2023-05-07T00:25:20;3.57;;;2.20;;
18455;SDS011;9357;49.900;8.208;2023-05-07T00:26:53;3.07;;;2.30;;
18455;SDS011;9357;49.900;8.208;2023-05-07T00:28:25;3.47;;;2.10;;
18455;SDS011;9357;49.900;8.208;2023-05-07T00:29:58;5.37;;;2.10;;
18455;SDS011;9357;49.900;8.208;2023-05-07T00:31:30;3.27;;;2.10;;
18455;SDS011;9357;49.900;8.208;2023-05-07T00:33:03;2.23;;;2.03;;
18455;SDS011;9357;49.900;8.208;2023-05-07T00:34:35;2.80;;;1.70;;
18455;SDS011;9357;49.900;8.208;2023-05-07T00:36:08;2.97;;;2.20;;
18455;SDS011;9357;49.900;8.208;2023-05-07T00:37:42;2.20;;;2.00;;
18455;SDS011;9357;49.900;8.208;2023-05-07T00:39:14;2.80;;;1.87;;
18455;SDS011;9357;49.900;8.208;2023-05-07T00:40:47;4.10;;;2.20;;
18455;SDS011;9357;49.900;8.208;2023-05-07T00:42:20;2.03;;;1.87;;
18455;SDS011;9357;49.900;8.208;2023-05-07T00:43:52;2.20;;;2.10;;
18455;SDS011;9357;49.900;8.208;2023-05-07T00:45:25;3.03;;;1.80;;
18455;SDS011;9357;49.900;8.208;2023-05-07T00:46:58;2.70;;;1.87;;
18455;SDS011;9357;49.900;8.208;2023-05-07T00:48:35;2.83;;;2.00;;
18455;SDS011;9357;49.900;8.208;2023-05-07T00:50:08;3.37;;;2.00;;
18455;SDS011;9357;49.900;8.208;2023-05-07T00:51:41;2.30;;;2.10;;
18455;SDS011;9357;49.900;8.208;2023-05-07T00:53:15;2.40;;;2.00;;
18455;SDS011;9357;49.900;8.208;2023-05-07T00:54:47;2.20;;;2.00;;
18455;SDS011;9357;49.900;8.208;2023-05-07T00:56:20;2.27;;;2.07;;
18455;SDS011;9357;49.900;8.208;2023-05-07T00:57:54;3.07;;;1.97;;
18455;SDS011;9357;49.900;8.208;2023-05-07T00:59:27;3.30;;;2.40;;
18455;SDS011;9357;49.900;8.208;2023-05-07T01:01:00;2.43;;;2.13;;
18455;SDS011;9357;49.900;8.208;2023-05-07T01:02:34;2.43;;;2.13;;
18455;SDS011;9357;49.900;8.208;2023-05-07T01:04:06;3.93;;;2.27;;
18455;SDS011;9357;49.900;8.208;2023-05-07T01:05:39;3.53;;;2.43;;
18455;SDS011;9357;49.900;8.208;2023-05-07T01:07:14;3.60;;;2.40;;
18455;SDS011;9357;49.900;8.208;2023-05-07T01:08:48;2.50;;;2.30;;
18455;SDS011;9357;49.900;8.208;2023-05-07T01:10:24;2.37;;;2.17;;
18455;SDS011;9357;49.900;8.208;2023-05-07T01:11:57;3.27;;;2.30;;
18455;SDS011;9357;49.900;8.208;2023-05-07T01:13:31;2.33;;;2.13;;
18455;SDS011;9357;49.900;8.208;2023-05-07T01:15:06;2.10;;;1.90;;
18455;SDS011;9357;49.900;8.208;2023-05-07T01:16:40;2.40;;;2.10;;
18455;SDS011;9357;49.900;8.208;2023-05-07T01:18:13;2.47;;;2.20;;
18455;SDS011;9357;49.900;8.208;2023-05-07T01:19:46;4.07;;;2.10;;
18455;SDS011;9357;49.900;8.208;2023-05-07T01:21:20;2.80;;;2.50;;
18455;SDS011;9357;49.900;8.208;2023-05-07T01:22:58;2.67;;;2.47;;
18455;SDS011;9357;49.900;8.208;2023-05-07T01:24:33;2.53;;;2.33;;
18455;SDS011;9357;49.900;8.208;2023-05-07T01:26:06;3.40;;;2.50;;
18455;SDS011;9357;49.900;8.208;2023-05-07T01:27:38;3.23;;;2.40;;
18455;SDS011;9357;49.900;8.208;2023-05-07T01:29:11;2.40;;;2.20;;
18455;SDS011;9357;49.900;8.208;2023-05-07T01:30:43;2.60;;;2.40;;
18455;SDS011;9357;49.900;8.208;2023-05-07T01:32:23;2.50;;;2.30;;
18455;SDS011;9357;49.900;8.208;2023-05-07T01:34:00;3.20;;;2.20;;
18455;SDS011;9357;49.900;8.208;2023-05-07T01:35:36;4.53;;;2.60;;
18455;SDS011;9357;49.900;8.208;2023-05-07T01:37:11;3.33;;;2.70;;
18455;SDS011;9357;49.900;8.208;2023-05-07T01:38:45;3.50;;;2.60;;
18455;SDS011;9357;49.900;8.208;2023-05-07T01:40:18;3.67;;;2.30;;
18455;SDS011;9357;49.900;8.208;2023-05-07T01:41:51;3.10;;;2.80;;
18455;SDS011;9357;49.900;8.208;2023-05-07T01:43:24;3.00;;;2.80;;
18455;SDS011;9357;49.900;8.208;2023-05-07T01:44:57;2.87;;;2.63;;
18455;SDS011;9357;49.900;8.208;2023-05-07T01:46:30;3.93;;;3.00;;
18455;SDS011;9357;49.900;8.208;2023-05-07T01:48:05;3.53;;;3.07;;
18455;SDS011;9357;49.900;8.208;2023-05-07T01:49:39;4.00;;;2.80;;
18455;SDS011;9357;49.900;8.208;2023-05-07T01:51:12;3.27;;;2.97;;
18455;SDS011;9357;49.900;8.208;2023-05-07T01:52:44;3.53;;;2.90;;
18455;SDS011;9357;49.900;8.208;2023-05-07T01:54:18;4.33;;;3.00;;
18455;SDS011;9357;49.900;8.208;2023-05-07T01:55:52;3.63;;;2.80;;
18455;SDS011;9357;49.900;8.208;2023-05-07T01:57:24;6.43;;;2.97;;
18455;SDS011;9357;49.900;8.208;2023-05-07T01:58:57;6.47;;;3.07;;
18455;SDS011;9357;49.900;8.208;2023-05-07T02:00:29;8.63;;;3.27;;
18455;SDS011;9357;49.900;8.208;2023-05-07T02:02:02;8.73;;;3.20;;
18455;SDS011;9357;49.900;8.208;2023-05-07T02:03:34;7.33;;;3.17;;
18455;SDS011;9357;49.900;8.208;2023-05-07T02:05:07;5.70;;;2.87;;
18455;SDS011;9357;49.900;8.208;2023-05-07T02:06:39;8.47;;;3.23;;
18455;SDS011;9357;49.900;8.208;2023-05-07T02:08:12;6.20;;;3.47;;
18455;SDS011;9357;49.900;8.208;2023-05-07T02:09:46;8.27;;;3.20;;
18455;SDS011;9357;49.900;8.208;2023-05-07T02:11:18;10.67;;;3.10;;
18455;SDS011;9357;49.900;8.208;2023-05-07T02:12:51;7.20;;;2.97;;
18455;SDS011;9357;49.900;8.208;2023-05-07T02:14:23;6.43;;;2.97;;
18455;SDS011;9357;49.900;8.208;2023-05-07T02:15:57;5.60;;;2.87;;
18455;SDS011;9357;49.900;8.208;2023-05-07T02:17:29;6.07;;;2.73;;
18455;SDS011;9357;49.900;8.208;2023-05-07T02:19:04;7.23;;;2.73;;
18455;SDS011;9357;49.900;8.208;2023-05-07T02:20:36;7.20;;;2.83;;
18455;SDS011;9357;49.900;8.208;2023-05-07T02:22:09;4.47;;;2.70;;
18455;SDS011;9357;49.900;8.208;2023-05-07T02:23:41;3.60;;;2.50;;
18455;SDS011;9357;49.900;8.208;2023-05-07T02:25:15;4.97;;;2.93;;
18455;SDS011;9357;49.900;8.208;2023-05-07T02:26:47;5.27;;;2.90;;
18455;SDS011;9357;49.900;8.208;2023-05-07T02:28:19;4.67;;;2.73;;
18455;SDS011;9357;49.900;8.208;2023-05-07T02:29:52;4.17;;;2.83;;
18455;SDS011;9357;49.900;8.208;2023-05-07T02:31:25;3.93;;;2.77;;
18455;SDS011;9357;49.900;8.208;2023-05-07T02:32:58;3.80;;;2.77;;
18455;SDS011;9357;49.900;8.208;2023-05-07T02:34:31;5.83;;;3.00;;
18455;SDS011;9357;49.900;8.208;2023-05-07T02:36:06;6.10;;;2.97;;
18455;SDS011;9357;49.900;8.208;2023-05-07T02:37:39;4.13;;;2.93;;
18455;SDS011;9357;49.900;8.208;2023-05-07T02:39:12;3.27;;;2.90;;
18455;SDS011;9357;49.900;8.208;2023-05-07T02:40:47;4.67;;;2.97;;
18455;SDS011;9357;49.900;8.208;2023-05-07T02:42:20;4.20;;;3.10;;
18455;SDS011;9357;49.900;8.208;2023-05-07T02:43:53;4.33;;;2.90;;
18455;SDS011;9357;49.900;8.208;2023-05-07T02:45:26;4.33;;;2.77;;
18455;SDS011;9357;49.900;8.208;2023-05-07T02:46:58;5.50;;;3.00;;
18455;SDS011;9357;49.900;8.208;2023-05-07T02:48:30;4.90;;;2.90;;
18455;SDS011;9357;49.900;8.208;2023-05-07T02:50:04;6.00;;;2.80;;
18455;SDS011;9357;49.900;8.208;2023-05-07T02:51:36;4.03;;;2.77;;
18455;SDS011;9357;49.900;8.208;2023-05-07T02:53:09;5.87;;;2.60;;
18455;SDS011;9357;49.900;8.208;2023-05-07T02:54:42;3.53;;;2.60;;
18455;SDS011;9357;49.900;8.208;2023-05-07T02:56:16;5.00;;;3.03;;
18455;SDS011;9357;49.900;8.208;2023-05-07T02:57:48;3.87;;;2.67;;
18455;SDS011;9357;49.900;8.208;2023-05-07T02:59:20;4.13;;;2.90;;
18455;SDS011;9357;49.900;8.208;2023-05-07T03:00:53;4.03;;;2.60;;
18455;SDS011;9357;49.900;8.208;2023-05-07T03:02:26;3.73;;;2.67;;
18455;SDS011;9357;49.900;8.208;2023-05-07T03:03:58;4.70;;;2.80;;
18455;SDS011;9357;49.900;8.208;2023-05-07T03:05:31;6.07;;;2.70;;
18455;SDS011;9357;49.900;8.208;2023-05-07T03:07:03;3.63;;;2.97;;
18455;SDS011;9357;49.900;8.208;2023-05-07T03:08:35;3.20;;;2.90;;
18455;SDS011;9357;49.900;8.208;2023-05-07T03:10:08;4.07;;;2.87;;
18455;SDS011;9357;49.900;8.208;2023-05-07T03:11:43;2.70;;;2.50;;
18455;SDS011;9357;49.900;8.208;2023-05-07T03:13:16;3.87;;;2.87;;
18455;SDS011;9357;49.900;8.208;2023-05-07T03:14:49;4.97;;;2.83;;
18455;SDS011;9357;49.900;8.208;2023-05-07T03:16:21;4.20;;;2.73;;
18455;SDS011;9357;49.900;8.208;2023-05-07T03:17:54;3.47;;;2.90;;
18455;SDS011;9357;49.900;8.208;2023-05-07T03:19:26;3.73;;;2.83;;
18455;SDS011;9357;49.900;8.208;2023-05-07T03:20:59;3.53;;;2.80;;
18455;SDS011;9357;49.900;8.208;2023-05-07T03:22:32;3.30;;;2.80;;
18455;SDS011;9357;49.900;8.208;2023-05-07T03:24:05;4.10;;;2.80;;
18455;SDS011;9357;49.900;8.208;2023-05-07T03:25:37;3.90;;;2.60;;
18455;SDS011;9357;49.900;8.208;2023-05-07T03:27:11;3.93;;;2.93;;
18455;SDS011;9357;49.900;8.208;2023-05-07T03:28:43;3.23;;;2.93;;
18455;SDS011;9357;49.900;8.208;2023-05-07T03:30:16;3.30;;;2.97;;
18455;SDS011;9357;49.900;8.208;2023-05-07T03:31:48;3.20;;;3.00;;
18455;SDS011;9357;49.900;8.208;2023-05-07T03:33:21;4.23;;;3.10;;
18455;SDS011;9357;49.900;8.208;2023-05-07T03:34:53;3.30;;;3.00;;
18455;SDS011;9357;49.900;8.208;2023-05-07T03:36:26;4.20;;;3.10;;
18455;SDS011;9357;49.900;8.208;2023-05-07T03:37:59;3.83;;;3.00;;
18455;SDS011;9357;49.900;8.208;2023-05-07T03:39:32;4.03;;;3.10;;
18455;SDS011;9357;49.900;8.208;2023-05-07T03:41:04;4.20;;;3.10;;
18455;SDS011;9357;49.900;8.208;2023-05-07T03:42:38;3.30;;;3.00;;
18455;SDS011;9357;49.900;8.208;2023-05-07T03:44:11;3.33;;;3.03;;
18455;SDS011;9357;49.900;8.208;2023-05-07T03:45:43;4.10;;;3.00;;
18455;SDS011;9357;49.900;8.208;2023-05-07T03:47:15;3.23;;;2.83;;
18455;SDS011;9357;49.900;8.208;2023-05-07T03:48:48;4.23;;;3.00;;
18455;SDS011;9357;49.900;8.208;2023-05-07T03:50:21;3.50;;;3.20;;
18455;SDS011;9357;49.900;8.208;2023-05-07T03:51:53;4.40;;;3.03;;
18455;SDS011;9357;49.900;8.208;2023-05-07T03:53:25;3.43;;;3.10;;
18455;SDS011;9357;49.900;8.208;2023-05-07T03:54:57;3.30;;;3.00;;
18455;SDS011;9357;49.900;8.208;2023-05-07T03:56:30;3.37;;;3.07;;
18455;SDS011;9357;49.900;8.208;2023-05-07T03:58:03;3.90;;;3.00;;
18455;SDS011;9357;49.900;8.208;2023-05-07T03:59:36;4.07;;;3.10;;
18455;SDS011;9357;49.900;8.208;2023-05-07T04:01:09;5.07;;;3.30;;
18455;SDS011;9357;49.900;8.208;2023-05-07T04:02:41;3.33;;;2.70;;
18455;SDS011;9357;49.900;8.208;2023-05-07T04:04:14;3.97;;;3.20;;
18455;SDS011;9357;49.900;8.208;2023-05-07T04:05:47;3.97;;;3.00;;
18455;SDS011;9357;49.900;8.208;2023-05-07T04:07:19;3.40;;;3.00;;
18455;SDS011;9357;49.900;8.208;2023-05-07T04:08:52;3.37;;;3.07;;
18455;SDS011;9357;49.900;8.208;2023-05-07T04:10:25;3.70;;;2.80;;
18455;SDS011;9357;49.900;8.208;2023-05-07T04:11:57;3.83;;;3.43;;
18455;SDS011;9357;49.900;8.208;2023-05-07T04:13:31;3.53;;;3.10;;
18455;SDS011;9357;49.900;8.208;2023-05-07T04:15:04;4.47;;;2.87;;
18455;SDS011;9357;49.900;8.208;2023-05-07T04:16:36;4.07;;;3.10;;
18455;SDS011;9357;49.900;8.208;2023-05-07T04:18:09;4.30;;;2.80;;
18455;SDS011;9357;49.900;8.208;2023-05-07T04:19:42;3.53;;;2.90;;
18455;SDS011;9357;49.900;8.208;2023-05-07T04:21:16;3.53;;;2.90;;
18455;SDS011;9357;49.900;8.208;2023-05-07T04:22:50;3.13;;;2.80;;
18455;SDS011;9357;49.900;8.208;2023-05-07T04:24:23;3.00;;;2.77;;
18455;SDS011;9357;49.900;8.208;2023-05-07T04:25:55;3.40;;;3.10;;
18455;SDS011;9357;49.900;8.208;2023-05-07T04:27:28;3.50;;;3.03;;
18455;SDS011;9357;49.900;8.208;2023-05-07T04:29:02;2.83;;;2.63;;
18455;SDS011;9357;49.900;8.208;2023-05-07T04:30:35;4.93;;;3.20;;
18455;SDS011;9357;49.900;8.208;2023-05-07T04:32:08;3.83;;;2.80;;
18455;SDS011;9357;49.900;8.208;2023-05-07T04:33:41;3.43;;;2.70;;
18455;SDS011;9357;49.900;8.208;2023-05-07T04:35:14;3.13;;;2.83;;
18455;SDS011;9357;49.900;8.208;2023-05-07T04:36:46;3.10;;;2.80;;
18455;SDS011;9357;49.900;8.208;2023-05-07T04:38:19;4.30;;;3.30;;
18455;SDS011;9357;49.900;8.208;2023-05-07T04:39:50;4.13;;;2.83;;
18455;SDS011;9357;49.900;8.208;2023-05-07T04:41:23;4.63;;;2.83;;
18455;SDS011;9357;49.900;8.208;2023-05-07T04:42:56;4.13;;;3.20;;
18455;SDS011;9357;49.900;8.208;2023-05-07T04:44:29;3.00;;;2.80;;
18455;SDS011;9357;49.900;8.208;2023-05-07T04:46:03;5.20;;;2.97;;
18455;SDS011;9357;49.900;8.208;2023-05-07T04:47:36;5.50;;;3.13;;
18455;SDS011;9357;49.900;8.208;2023-05-07T04:49:07;5.10;;;3.23;;
18455;SDS011;9357;49.900;8.208;2023-05-07T04:50:41;3.03;;;2.83;;
18455;SDS011;9357;49.900;8.208;2023-05-07T04:52:14;3.00;;;2.80;;
18455;SDS011;9357;49.900;8.208;2023-05-07T04:53:48;3.27;;;3.07;;
18455;SDS011;9357;49.900;8.208;2023-05-07T04:55:20;3.53;;;3.00;;
18455;SDS011;9357;49.900;8.208;2023-05-07T04:56:53;4.33;;;3.20;;
18455;SDS011;9357;49.900;8.208;2023-05-07T04:58:26;5.30;;;3.33;;
18455;SDS011;9357;49.900;8.208;2023-05-07T05:00:04;3.80;;;3.17;;
18455;SDS011;9357;49.900;8.208;2023-05-07T05:01:39;4.20;;;3.33;;
18455;SDS011;9357;49.900;8.208;2023-05-07T05:03:12;4.43;;;3.33;;
18455;SDS011;9357;49.900;8.208;2023-05-07T05:04:44;3.80;;;3.40;;
18455;SDS011;9357;49.900;8.208;2023-05-07T05:06:17;4.20;;;2.90;;
18455;SDS011;9357;49.900;8.208;2023-05-07T05:07:50;6.63;;;3.30;;
18455;SDS011;9357;49.900;8.208;2023-05-07T05:09:22;3.40;;;3.03;;
18455;SDS011;9357;49.900;8.208;2023-05-07T05:10:55;3.43;;;3.13;;
18455;SDS011;9357;49.900;8.208;2023-05-07T05:12:28;3.17;;;2.87;;
18455;SDS011;9357;49.900;8.208;2023-05-07T05:14:00;4.37;;;3.10;;
18455;SDS011;9357;49.900;8.208;2023-05-07T05:15:34;3.07;;;2.80;;
18455;SDS011;9357;49.900;8.208;2023-05-07T05:17:06;3.30;;;3.00;;
18455;SDS011;9357;49.900;8.208;2023-05-07T05:18:39;4.00;;;2.87;;
18455;SDS011;9357;49.900;8.208;2023-05-07T05:20:12;2.77;;;2.50;;
18455;SDS011;9357;49.900;8.208;2023-05-07T05:21:45;3.20;;;2.90;;
18455;SDS011;9357;49.900;8.208;2023-05-07T05:23:18;3.97;;;2.90;;
18455;SDS011;9357;49.900;8.208;2023-05-07T05:24:51;4.00;;;2.87;;
18455;SDS011;9357;49.900;8.208;2023-05-07T05:26:23;3.13;;;2.80;;
18455;SDS011;9357;49.900;8.208;2023-05-07T05:27:56;3.83;;;2.83;;
18455;SDS011;9357;49.900;8.208;2023-05-07T05:29:29;4.07;;;2.77;;
18455;SDS011;9357;49.900;8.208;2023-05-07T05:31:04;3.13;;;2.83;;
18455;SDS011;9357;49.900;8.208;2023-05-07T05:32:37;2.73;;;2.53;;
18455;SDS011;9357;49.900;8.208;2023-05-07T05:34:10;2.97;;;2.70;;
18455;SDS011;9357;49.900;8.208;2023-05-07T05:35:43;3.00;;;2.67;;
18455;SDS011;9357;49.900;8.208;2023-05-07T05:37:16;3.90;;;2.70;;
18455;SDS011;9357;49.900;8.208;2023-05-07T05:38:47;3.00;;;2.70;;
18455;SDS011;9357;49.900;8.208;2023-05-07T05:40:20;4.03;;;3.07;;
18455;SDS011;9357;49.900;8.208;2023-05-07T05:41:53;2.80;;;2.60;;
18455;SDS011;9357;49.900;8.208;2023-05-07T05:43:25;3.20;;;2.90;;
18455;SDS011;9357;49.900;8.208;2023-05-07T05:44:58;3.93;;;2.83;;
18455;SDS011;9357;49.900;8.208;2023-05-07T05:46:32;4.07;;;3.17;;
18455;SDS011;9357;49.900;8.208;2023-05-07T05:48:07;3.70;;;2.90;;
18455;SDS011;9357;49.900;8.208;2023-05-07T05:49:40;3.30;;;3.00;;
18455;SDS011;9357;49.900;8.208;2023-05-07T05:51:14;4.97;;;3.10;;
18455;SDS011;9357;49.900;8.208;2023-05-07T05:52:46;2.63;;;2.40;;
18455;SDS011;9357;49.900;8.208;2023-05-07T05:54:20;3.80;;;2.67;;
18455;SDS011;9357;49.900;8.208;2023-05-07T05:55:52;3.63;;;2.90;;
18455;SDS011;9357;49.900;8.208;2023-05-07T05:57:25;4.00;;;2.80;;
18455;SDS011;9357;49.900;8.208;2023-05-07T05:58:59;2.67;;;2.47;;
18455;SDS011;9357;49.900;8.208;2023-05-07T06:00:32;3.03;;;2.83;;
18455;SDS011;9357;49.900;8.208;2023-05-07T06:02:06;3.37;;;2.93;;
18455;SDS011;9357;49.900;8.208;2023-05-07T06:03:39;3.10;;;2.90;;
18455;SDS011;9357;49.900;8.208;2023-05-07T06:05:12;3.03;;;2.73;;
18455;SDS011;9357;49.900;8.208;2023-05-07T06:06:44;2.80;;;2.60;;
18455;SDS011;9357;49.900;8.208;2023-05-07T06:08:17;4.60;;;3.07;;
18455;SDS011;9357;49.900;8.208;2023-05-07T06:09:50;4.40;;;2.87;;
18455;SDS011;9357;49.900;8.208;2023-05-07T06:11:23;3.23;;;2.70;;
18455;SDS011;9357;49.900;8.208;2023-05-07T06:12:56;5.53;;;3.23;;
18455;SDS011;9357;49.900;8.208;2023-05-07T06:14:29;3.47;;;3.00;;
18455;SDS011;9357;49.900;8.208;2023-05-07T06:16:02;3.43;;;3.00;;
18455;SDS011;9357;49.900;8.208;2023-05-07T06:17:39;4.03;;;2.90;;
18455;SDS011;9357;49.900;8.208;2023-05-07T06:19:12;3.53;;;2.90;;
18455;SDS011;9357;49.900;8.208;2023-05-07T06:20:45;3.03;;;2.80;;
18455;SDS011;9357;49.900;8.208;2023-05-07T06:22:18;3.23;;;2.73;;
18455;SDS011;9357;49.900;8.208;2023-05-07T06:23:50;3.33;;;2.87;;
18455;SDS011;9357;49.900;8.208;2023-05-07T06:25:23;3.20;;;2.90;;
18455;SDS011;9357;49.900;8.208;2023-05-07T06:26:56;3.40;;;3.10;;
18455;SDS011;9357;49.900;8.208;2023-05-07T06:28:29;4.03;;;3.20;;
18455;SDS011;9357;49.900;8.208;2023-05-07T06:30:07;5.70;;;2.83;;
18455;SDS011;9357;49.900;8.208;2023-05-07T06:31:40;3.37;;;3.00;;
18455;SDS011;9357;49.900;8.208;2023-05-07T06:33:14;3.93;;;3.20;;
18455;SDS011;9357;49.900;8.208;2023-05-07T06:34:47;4.37;;;3.20;;
18455;SDS011;9357;49.900;8.208;2023-05-07T06:36:20;3.17;;;2.93;;
18455;SDS011;9357;49.900;8.208;2023-05-07T06:37:53;5.13;;;3.20;;
18455;SDS011;9357;49.900;8.208;2023-05-07T06:39:25;3.57;;;3.27;;
18455;SDS011;9357;49.900;8.208;2023-05-07T06:40:58;3.57;;;3.27;;
18455;SDS011;9357;49.900;8.208;2023-05-07T06:42:31;3.17;;;2.90;;
18455;SDS011;9357;49.900;8.208;2023-05-07T06:44:04;3.50;;;3.17;;
18455;SDS011;9357;49.900;8.208;2023-05-07T06:45:37;6.73;;;3.30;;
18455;SDS011;9357;49.900;8.208;2023-05-07T06:47:09;3.33;;;3.03;;
18455;SDS011;9357;49.900;8.208;2023-05-07T06:48:47;3.50;;;3.20;;
18455;SDS011;9357;49.900;8.208;2023-05-07T06:50:20;4.03;;;3.17;;
18455;SDS011;9357;49.900;8.208;2023-05-07T06:51:52;3.87;;;3.50;;
18455;SDS011;9357;49.900;8.208;2023-05-07T06:53:25;4.30;;;3.40;;
18455;SDS011;9357;49.900;8.208;2023-05-07T06:54:59;3.83;;;3.47;;
18455;SDS011;9357;49.900;8.208;2023-05-07T06:56:32;3.63;;;3.20;;
18455;SDS011;9357;49.900;8.208;2023-05-07T06:58:04;4.67;;;3.80;;
18455;SDS011;9357;49.900;8.208;2023-05-07T06:59:37;3.53;;;3.23;;
18455;SDS011;9357;49.900;8.208;2023-05-07T07:01:09;3.60;;;3.30;;
18455;SDS011;9357;49.900;8.208;2023-05-07T07:02:42;4.40;;;3.30;;
18455;SDS011;9357;49.900;8.208;2023-05-07T07:04:17;4.27;;;3.40;;
18455;SDS011;9357;49.900;8.208;2023-05-07T07:05:51;3.50;;;3.20;;
18455;SDS011;9357;49.900;8.208;2023-05-07T07:07:24;3.97;;;3.50;;
18455;SDS011;9357;49.900;8.208;2023-05-07T07:08:56;5.00;;;3.67;;
18455;SDS011;9357;49.900;8.208;2023-05-07T07:10:29;3.83;;;3.53;;
18455;SDS011;9357;49.900;8.208;2023-05-07T07:12:02;3.63;;;3.33;;
18455;SDS011;9357;49.900;8.208;2023-05-07T07:13:35;3.97;;;3.27;;
18455;SDS011;9357;49.900;8.208;2023-05-07T07:15:08;4.87;;;3.40;;
18455;SDS011;9357;49.900;8.208;2023-05-07T07:16:42;3.60;;;3.30;;
18455;SDS011;9357;49.900;8.208;2023-05-07T07:18:13;3.93;;;3.40;;
18455;SDS011;9357;49.900;8.208;2023-05-07T07:19:48;3.87;;;3.57;;
18455;SDS011;9357;49.900;8.208;2023-05-07T07:21:20;3.70;;;3.40;;
18455;SDS011;9357;49.900;8.208;2023-05-07T07:22:53;3.97;;;3.60;;
18455;SDS011;9357;49.900;8.208;2023-05-07T07:24:26;3.90;;;3.60;;
18455;SDS011;9357;49.900;8.208;2023-05-07T07:25:57;4.50;;;3.80;;
18455;SDS011;9357;49.900;8.208;2023-05-07T07:27:30;3.40;;;3.10;;
18455;SDS011;9357;49.900;8.208;2023-05-07T07:29:02;3.80;;;3.50;;
18455;SDS011;9357;49.900;8.208;2023-05-07T07:30:35;4.00;;;3.40;;
18455;SDS011;9357;49.900;8.208;2023-05-07T07:32:08;3.70;;;3.40;;
18455;SDS011;9357;49.900;8.208;2023-05-07T07:33:40;3.83;;;3.40;;
18455;SDS011;9357;49.900;8.208;2023-05-07T07:35:15;5.00;;;3.60;;
18455;SDS011;9357;49.900;8.208;2023-05-07T07:36:47;3.50;;;3.20;;
18455;SDS011;9357;49.900;8.208;2023-05-07T07:38:20;4.23;;;3.27;;
18455;SDS011;9357;49.900;8.208;2023-05-07T07:39:53;3.90;;;3.50;;
18455;SDS011;9357;49.900;8.208;2023-05-07T07:41:27;3.70;;;3.30;;
18455;SDS011;9357;49.900;8.208;2023-05-07T07:42:59;3.53;;;3.23;;
18455;SDS011;9357;49.900;8.208;2023-05-07T07:44:32;3.60;;;3.30;;
18455;SDS011;9357;49.900;8.208;2023-05-07T07:46:05;3.33;;;3.03;;
18455;SDS011;9357;49.900;8.208;2023-05-07T07:47:38;3.50;;;3.20;;
18455;SDS011;9357;49.900;8.208;2023-05-07T07:49:11;3.70;;;3.40;;
18455;SDS011;9357;49.900;8.208;2023-05-07T07:50:45;3.73;;;3.20;;
18455;SDS011;9357;49.900;8.208;2023-05-07T07:52:21;3.73;;;3.33;;
18455;SDS011;9357;49.900;8.208;2023-05-07T07:53:53;3.60;;;3.30;;
18455;SDS011;9357;49.900;8.208;2023-05-07T07:55:26;4.43;;;3.53;;
18455;SDS011;9357;49.900;8.208;2023-05-07T07:56:59;3.60;;;3.30;;
18455;SDS011;9357;49.900;8.208;2023-05-07T07:58:32;3.67;;;3.07;;
18455;SDS011;9357;49.900;8.208;2023-05-07T08:00:07;3.60;;;3.30;;
18455;SDS011;9357;49.900;8.208;2023-05-07T08:01:40;3.50;;;3.20;;
18455;SDS011;9357;49.900;8.208;2023-05-07T08:03:13;3.83;;;3.50;;
18455;SDS011;9357;49.900;8.208;2023-05-07T08:04:47;4.03;;;3.33;;
18455;SDS011;9357;49.900;8.208;2023-05-07T08:06:22;5.37;;;3.43;;
18455;SDS011;9357;49.900;8.208;2023-05-07T08:07:54;3.60;;;3.30;;
18455;SDS011;9357;49.900;8.208;2023-05-07T08:09:27;3.90;;;3.60;;
18455;SDS011;9357;49.900;8.208;2023-05-07T08:11:00;3.83;;;3.40;;
18455;SDS011;9357;49.900;8.208;2023-05-07T08:12:33;3.70;;;3.27;;
18455;SDS011;9357;49.900;8.208;2023-05-07T08:14:05;3.70;;;3.40;;
18455;SDS011;9357;49.900;8.208;2023-05-07T08:15:38;4.03;;;3.57;;
18455;SDS011;9357;49.900;8.208;2023-05-07T08:17:11;3.57;;;3.27;;
18455;SDS011;9357;49.900;8.208;2023-05-07T08:18:47;4.27;;;3.97;;
18455;SDS011;9357;49.900;8.208;2023-05-07T08:20:20;4.30;;;3.67;;
18455;SDS011;9357;49.900;8.208;2023-05-07T08:21:54;3.87;;;3.57;;
18455;SDS011;9357;49.900;8.208;2023-05-07T08:23:27;3.70;;;3.40;;
18455;SDS011;9357;49.900;8.208;2023-05-07T08:24:59;3.60;;;3.30;;
18455;SDS011;9357;49.900;8.208;2023-05-07T08:26:32;3.97;;;3.67;;
18455;SDS011;9357;49.900;8.208;2023-05-07T08:28:06;4.47;;;3.87;;
18455;SDS011;9357;49.900;8.208;2023-05-07T08:29:40;4.20;;;3.80;;
18455;SDS011;9357;49.900;8.208;2023-05-07T08:31:13;4.03;;;3.60;;
18455;SDS011;9357;49.900;8.208;2023-05-07T08:32:45;3.83;;;3.53;;
18455;SDS011;9357;49.900;8.208;2023-05-07T08:34:18;3.90;;;3.37;;
18455;SDS011;9357;49.900;8.208;2023-05-07T08:35:51;4.20;;;3.73;;
18455;SDS011;9357;49.900;8.208;2023-05-07T08:37:25;3.93;;;3.63;;
18455;SDS011;9357;49.900;8.208;2023-05-07T08:38:58;5.93;;;3.77;;
18455;SDS011;9357;49.900;8.208;2023-05-07T08:40:33;3.97;;;3.57;;
18455;SDS011;9357;49.900;8.208;2023-05-07T08:42:09;3.87;;;3.50;;
18455;SDS011;9357;49.900;8.208;2023-05-07T08:43:44;3.67;;;3.37;;
18455;SDS011;9357;49.900;8.208;2023-05-07T08:45:19;4.17;;;3.60;;
18455;SDS011;9357;49.900;8.208;2023-05-07T08:46:52;3.90;;;3.60;;
18455;SDS011;9357;49.900;8.208;2023-05-07T08:48:27;3.90;;;3.47;;
18455;SDS011;9357;49.900;8.208;2023-05-07T08:50:01;4.10;;;3.70;;
18455;SDS011;9357;49.900;8.208;2023-05-07T08:51:35;4.17;;;3.80;;
18455;SDS011;9357;49.900;8.208;2023-05-07T08:53:09;3.90;;;3.50;;
18455;SDS011;9357;49.900;8.208;2023-05-07T08:54:42;5.00;;;3.50;;
18455;SDS011;9357;49.900;8.208;2023-05-07T08:56:16;4.07;;;3.63;;
18455;SDS011;9357;49.900;8.208;2023-05-07T08:57:51;4.23;;;3.90;;
18455;SDS011;9357;49.900;8.208;2023-05-07T08:59:25;4.20;;;3.90;;
18455;SDS011;9357;49.900;8.208;2023-05-07T09:00:58;4.07;;;3.67;;
18455;SDS011;9357;49.900;8.208;2023-05-07T09:02:32;4.03;;;3.73;;
18455;SDS011;9357;49.900;8.208;2023-05-07T09:04:07;3.90;;;3.60;;
18455;SDS011;9357;49.900;8.208;2023-05-07T09:05:40;3.80;;;3.50;;
18455;SDS011;9357;49.900;8.208;2023-05-07T09:07:14;4.33;;;3.93;;
18455;SDS011;9357;49.900;8.208;2023-05-07T09:08:51;4.17;;;3.87;;
18455;SDS011;9357;49.900;8.208;2023-05-07T09:10:25;4.00;;;3.70;;
18455;SDS011;9357;49.900;8.208;2023-05-07T09:11:58;4.10;;;3.70;;
18455;SDS011;9357;49.900;8.208;2023-05-07T09:13:30;3.77;;;3.47;;
18455;SDS011;9357;49.900;8.208;2023-05-07T09:15:04;3.87;;;3.57;;
18455;SDS011;9357;49.900;8.208;2023-05-07T09:16:37;4.50;;;3.80;;
18455;SDS011;9357;49.900;8.208;2023-05-07T09:18:11;4.13;;;3.73;;
18455;SDS011;9357;49.900;8.208;2023-05-07T09:19:47;4.20;;;3.90;;
18455;SDS011;9357;49.900;8.208;2023-05-07T09:21:20;4.10;;;3.80;;
18455;SDS011;9357;49.900;8.208;2023-05-07T09:22:55;4.10;;;3.80;;
18455;SDS011;9357;49.900;8.208;2023-05-07T09:24:29;4.43;;;4.00;;
18455;SDS011;9357;49.900;8.208;2023-05-07T09:26:06;4.30;;;3.87;;
18455;SDS011;9357;49.900;8.208;2023-05-07T09:27:42;4.20;;;3.80;;
18455;SDS011;9357;49.900;8.208;2023-05-07T09:29:15;4.10;;;3.80;;